sensor_id;sensor_type;location;lat;lon;timestamp;temperature;humidity
20139;DHT22;10230;51.502;10.800;2022-10-16T00:01:47;15.40;99.90
20139;DHT22;10230;51.502;10.800;2022-10-16T00:04:13;15.40;99.90
20139;DHT22;10230;51.502;10.800;2022-10-16T00:06:39;15.40;99.90
20139;DHT22;10230;51.502;10.800;2022-10-16T00:09:05;15.40;99.90
20139;DHT22;10230;51.502;10.800;2022-10-16T00:11:33;15.40;99.90
20139;DHT22;10230;51.502;10.800;2022-10-16T00:14:03;15.40;99.90
20139;DHT22;10230;51.502;10.800;2022-10-16T00:16:30;15.40;99.90
20139;DHT22;10230;51.502;10.800;2022-10-16T00:18:56;15.40;99.90
20139;DHT22;10230;51.502;10.800;2022-10-16T00:21:24;15.40;99.90
20139;DHT22;10230;51.502;10.800;2022-10-16T00:23:55;15.30;99.90
20139;DHT22;10230;51.502;10.800;2022-10-16T00:26:21;15.30;99.90
20139;DHT22;10230;51.502;10.800;2022-10-16T00:28:48;15.30;99.90
20139;DHT22;10230;51.502;10.800;2022-10-16T00:31:15;15.30;99.90
20139;DHT22;10230;51.502;10.800;2022-10-16T00:33:41;15.30;99.90
20139;DHT22;10230;51.502;10.800;2022-10-16T00:36:09;15.30;99.90
20139;DHT22;10230;51.502;10.800;2022-10-16T00:38:47;15.30;99.90
20139;DHT22;10230;51.502;10.800;2022-10-16T00:41:25;15.30;99.90
20139;DHT22;10230;51.502;10.800;2022-10-16T00:43:56;15.40;99.90
20139;DHT22;10230;51.502;10.800;2022-10-16T00:46:55;15.40;99.90
20139;DHT22;10230;51.502;10.800;2022-10-16T00:49:33;15.50;99.90
20139;DHT22;10230;51.502;10.800;2022-10-16T00:52:34;15.50;99.90
20139;DHT22;10230;51.502;10.800;2022-10-16T00:55:02;15.50;99.90
20139;DHT22;10230;51.502;10.800;2022-10-16T00:57:41;15.60;99.90
20139;DHT22;10230;51.502;10.800;2022-10-16T01:00:10;15.60;99.90
20139;DHT22;10230;51.502;10.800;2022-10-16T01:02:37;15.60;99.90
20139;DHT22;10230;51.502;10.800;2022-10-16T01:05:05;15.60;99.90
20139;DHT22;10230;51.502;10.800;2022-10-16T01:08:12;15.60;99.90
20139;DHT22;10230;51.502;10.800;2022-10-16T01:14:26;15.70;99.90
20139;DHT22;10230;51.502;10.800;2022-10-16T01:28:04;15.70;99.90
20139;DHT22;10230;51.502;10.800;2022-10-16T01:30:58;15.80;99.90
20139;DHT22;10230;51.502;10.800;2022-10-16T01:33:45;15.80;99.90
20139;DHT22;10230;51.502;10.800;2022-10-16T01:36:36;15.80;99.90
20139;DHT22;10230;51.502;10.800;2022-10-16T01:39:15;15.80;99.90
20139;DHT22;10230;51.502;10.800;2022-10-16T01:41:55;15.80;99.90
20139;DHT22;10230;51.502;10.800;2022-10-16T01:44:30;15.70;99.90
20139;DHT22;10230;51.502;10.800;2022-10-16T01:47:25;15.70;99.90
20139;DHT22;10230;51.502;10.800;2022-10-16T01:50:02;15.70;99.90
20139;DHT22;10230;51.502;10.800;2022-10-16T01:52:37;15.70;99.90
20139;DHT22;10230;51.502;10.800;2022-10-16T01:55:06;15.70;99.90
20139;DHT22;10230;51.502;10.800;2022-10-16T01:57:44;15.70;99.90
20139;DHT22;10230;51.502;10.800;2022-10-16T02:00:17;15.70;99.90
20139;DHT22;10230;51.502;10.800;2022-10-16T02:02:50;15.70;99.90
20139;DHT22;10230;51.502;10.800;2022-10-16T02:05:32;15.70;99.90
20139;DHT22;10230;51.502;10.800;2022-10-16T02:07:59;15.70;99.90
20139;DHT22;10230;51.502;10.800;2022-10-16T02:10:27;15.70;99.90
20139;DHT22;10230;51.502;10.800;2022-10-16T02:13:21;15.70;99.90
20139;DHT22;10230;51.502;10.800;2022-10-16T02:15:49;15.70;99.90
20139;DHT22;10230;51.502;10.800;2022-10-16T02:18:21;15.60;99.90
20139;DHT22;10230;51.502;10.800;2022-10-16T02:20:54;15.60;99.90
20139;DHT22;10230;51.502;10.800;2022-10-16T03:11:02;15.50;99.90
20139;DHT22;10230;51.502;10.800;2022-10-16T03:13:30;15.60;99.90
20139;DHT22;10230;51.502;10.800;2022-10-16T03:15:56;15.60;99.90
20139;DHT22;10230;51.502;10.800;2022-10-16T03:18:21;15.60;99.90
20139;DHT22;10230;51.502;10.800;2022-10-16T03:20:47;15.60;99.90
20139;DHT22;10230;51.502;10.800;2022-10-16T03:23:13;15.60;99.90
20139;DHT22;10230;51.502;10.800;2022-10-16T03:25:39;15.60;99.90
20139;DHT22;10230;51.502;10.800;2022-10-16T03:28:05;15.50;99.90
20139;DHT22;10230;51.502;10.800;2022-10-16T03:30:31;15.50;99.90
20139;DHT22;10230;51.502;10.800;2022-10-16T03:32:57;15.50;99.90
20139;DHT22;10230;51.502;10.800;2022-10-16T03:35:25;15.50;99.90
20139;DHT22;10230;51.502;10.800;2022-10-16T03:37:51;15.50;99.90
20139;DHT22;10230;51.502;10.800;2022-10-16T03:40:17;15.40;99.90
20139;DHT22;10230;51.502;10.800;2022-10-16T03:42:43;15.40;99.90
20139;DHT22;10230;51.502;10.800;2022-10-16T03:45:10;15.40;99.90
20139;DHT22;10230;51.502;10.800;2022-10-16T03:47:37;15.40;99.90
20139;DHT22;10230;51.502;10.800;2022-10-16T03:50:04;15.30;99.90
20139;DHT22;10230;51.502;10.800;2022-10-16T03:52:30;15.30;99.90
20139;DHT22;10230;51.502;10.800;2022-10-16T03:55:04;15.20;99.90
20139;DHT22;10230;51.502;10.800;2022-10-16T03:57:36;15.20;99.90
20139;DHT22;10230;51.502;10.800;2022-10-16T04:00:05;15.20;99.90
20139;DHT22;10230;51.502;10.800;2022-10-16T04:02:33;15.10;99.90
20139;DHT22;10230;51.502;10.800;2022-10-16T04:04:58;15.10;99.90
20139;DHT22;10230;51.502;10.800;2022-10-16T04:07:24;15.10;99.90
20139;DHT22;10230;51.502;10.800;2022-10-16T04:09:49;15.10;99.90
20139;DHT22;10230;51.502;10.800;2022-10-16T04:12:17;15.00;99.90
20139;DHT22;10230;51.502;10.800;2022-10-16T04:14:45;15.00;99.90
20139;DHT22;10230;51.502;10.800;2022-10-16T04:17:14;15.00;99.90
20139;DHT22;10230;51.502;10.800;2022-10-16T04:19:39;15.00;99.90
20139;DHT22;10230;51.502;10.800;2022-10-16T04:22:05;15.00;99.90
20139;DHT22;10230;51.502;10.800;2022-10-16T04:24:31;15.00;99.90
20139;DHT22;10230;51.502;10.800;2022-10-16T04:26:57;15.00;99.90
20139;DHT22;10230;51.502;10.800;2022-10-16T04:29:22;15.00;99.90
20139;DHT22;10230;51.502;10.800;2022-10-16T04:31:48;15.00;99.90
20139;DHT22;10230;51.502;10.800;2022-10-16T04:34:13;15.00;99.90
20139;DHT22;10230;51.502;10.800;2022-10-16T04:36:39;15.00;99.90
20139;DHT22;10230;51.502;10.800;2022-10-16T04:39:05;15.00;99.90
20139;DHT22;10230;51.502;10.800;2022-10-16T04:41:30;15.00;99.90
20139;DHT22;10230;51.502;10.800;2022-10-16T04:43:56;14.90;99.90
20139;DHT22;10230;51.502;10.800;2022-10-16T04:46:22;14.90;99.90
20139;DHT22;10230;51.502;10.800;2022-10-16T04:48:47;14.80;99.90
20139;DHT22;10230;51.502;10.800;2022-10-16T04:51:13;14.80;99.90
20139;DHT22;10230;51.502;10.800;2022-10-16T04:53:38;14.70;99.90
20139;DHT22;10230;51.502;10.800;2022-10-16T04:56:04;14.70;99.90
20139;DHT22;10230;51.502;10.800;2022-10-16T04:58:30;14.70;99.90
20139;DHT22;10230;51.502;10.800;2022-10-16T05:00:56;14.60;99.90
20139;DHT22;10230;51.502;10.800;2022-10-16T05:03:22;14.60;99.90
20139;DHT22;10230;51.502;10.800;2022-10-16T05:05:47;14.60;99.90
20139;DHT22;10230;51.502;10.800;2022-10-16T05:08:14;14.50;99.90
20139;DHT22;10230;51.502;10.800;2022-10-16T05:10:41;14.50;99.90
20139;DHT22;10230;51.502;10.800;2022-10-16T05:13:08;14.40;99.90
20139;DHT22;10230;51.502;10.800;2022-10-16T05:15:34;14.50;99.90
20139;DHT22;10230;51.502;10.800;2022-10-16T05:18:00;14.40;99.90
20139;DHT22;10230;51.502;10.800;2022-10-16T05:20:26;14.50;99.90
20139;DHT22;10230;51.502;10.800;2022-10-16T05:22:51;14.50;99.90
20139;DHT22;10230;51.502;10.800;2022-10-16T05:25:17;14.60;99.90
20139;DHT22;10230;51.502;10.800;2022-10-16T05:27:43;14.60;99.90
20139;DHT22;10230;51.502;10.800;2022-10-16T05:30:12;14.60;99.90
20139;DHT22;10230;51.502;10.800;2022-10-16T05:32:37;14.70;99.90
20139;DHT22;10230;51.502;10.800;2022-10-16T05:35:03;14.70;99.90
20139;DHT22;10230;51.502;10.800;2022-10-16T05:37:29;14.70;99.90
20139;DHT22;10230;51.502;10.800;2022-10-16T05:39:54;14.70;99.90
20139;DHT22;10230;51.502;10.800;2022-10-16T05:42:20;14.70;99.90
20139;DHT22;10230;51.502;10.800;2022-10-16T05:44:46;14.70;99.90
20139;DHT22;10230;51.502;10.800;2022-10-16T05:47:13;14.80;99.90
20139;DHT22;10230;51.502;10.800;2022-10-16T05:49:39;14.80;99.90
20139;DHT22;10230;51.502;10.800;2022-10-16T05:52:05;14.80;99.90
20139;DHT22;10230;51.502;10.800;2022-10-16T05:54:31;14.80;99.90
20139;DHT22;10230;51.502;10.800;2022-10-16T05:56:57;14.90;99.90
20139;DHT22;10230;51.502;10.800;2022-10-16T05:59:23;14.90;99.90
20139;DHT22;10230;51.502;10.800;2022-10-16T06:04:14;15.30;99.90
20139;DHT22;10230;51.502;10.800;2022-10-16T06:06:40;15.00;99.90
20139;DHT22;10230;51.502;10.800;2022-10-16T06:09:06;15.00;99.90
20139;DHT22;10230;51.502;10.800;2022-10-16T06:11:33;15.00;99.90
20139;DHT22;10230;51.502;10.800;2022-10-16T06:14:00;15.00;99.90
20139;DHT22;10230;51.502;10.800;2022-10-16T06:16:28;15.50;99.90
20139;DHT22;10230;51.502;10.800;2022-10-16T06:18:55;15.10;99.90
20139;DHT22;10230;51.502;10.800;2022-10-16T06:21:23;15.00;99.90
20139;DHT22;10230;51.502;10.800;2022-10-16T06:23:53;14.60;99.90
20139;DHT22;10230;51.502;10.800;2022-10-16T06:26:21;14.90;99.90
20139;DHT22;10230;51.502;10.800;2022-10-16T06:28:48;14.80;99.90
20139;DHT22;10230;51.502;10.800;2022-10-16T06:31:14;14.80;99.90
20139;DHT22;10230;51.502;10.800;2022-10-16T06:33:40;14.70;99.90
20139;DHT22;10230;51.502;10.800;2022-10-16T06:36:12;14.70;99.90
20139;DHT22;10230;51.502;10.800;2022-10-16T06:38:39;14.60;99.90
20139;DHT22;10230;51.502;10.800;2022-10-16T06:41:05;14.70;99.90
20139;DHT22;10230;51.502;10.800;2022-10-16T06:43:32;14.80;99.90
20139;DHT22;10230;51.502;10.800;2022-10-16T06:45:59;15.00;99.90
20139;DHT22;10230;51.502;10.800;2022-10-16T06:48:26;15.10;99.90
20139;DHT22;10230;51.502;10.800;2022-10-16T06:51:06;15.20;99.90
20139;DHT22;10230;51.502;10.800;2022-10-16T06:53:35;15.30;99.90
20139;DHT22;10230;51.502;10.800;2022-10-16T06:56:26;15.30;99.90
20139;DHT22;10230;51.502;10.800;2022-10-16T07:01:21;15.40;99.90
20139;DHT22;10230;51.502;10.800;2022-10-16T07:03:48;15.50;99.90
20139;DHT22;10230;51.502;10.800;2022-10-16T07:06:16;15.70;99.90
20139;DHT22;10230;51.502;10.800;2022-10-16T07:08:44;16.30;99.90
20139;DHT22;10230;51.502;10.800;2022-10-16T07:11:18;16.50;99.90
20139;DHT22;10230;51.502;10.800;2022-10-16T07:16:23;18.10;99.90
20139;DHT22;10230;51.502;10.800;2022-10-16T07:18:49;19.50;99.90
20139;DHT22;10230;51.502;10.800;2022-10-16T07:21:19;20.10;99.90
20139;DHT22;10230;51.502;10.800;2022-10-16T07:23:49;21.50;99.90
20139;DHT22;10230;51.502;10.800;2022-10-16T07:26:15;21.80;99.90
20139;DHT22;10230;51.502;10.800;2022-10-16T07:28:42;21.20;99.90
20139;DHT22;10230;51.502;10.800;2022-10-16T07:31:11;20.50;99.90
20139;DHT22;10230;51.502;10.800;2022-10-16T07:33:38;19.80;99.90
20139;DHT22;10230;51.502;10.800;2022-10-16T07:36:04;19.10;99.90
20139;DHT22;10230;51.502;10.800;2022-10-16T07:38:30;18.60;99.90
20139;DHT22;10230;51.502;10.800;2022-10-16T07:41:01;18.40;99.90
20139;DHT22;10230;51.502;10.800;2022-10-16T07:43:27;19.40;99.90
20139;DHT22;10230;51.502;10.800;2022-10-16T07:45:53;20.90;99.90
20139;DHT22;10230;51.502;10.800;2022-10-16T07:48:21;21.70;99.90
20139;DHT22;10230;51.502;10.800;2022-10-16T07:50:46;21.50;99.90
20139;DHT22;10230;51.502;10.800;2022-10-16T07:53:12;21.20;99.90
20139;DHT22;10230;51.502;10.800;2022-10-16T07:55:39;20.90;99.90
20139;DHT22;10230;51.502;10.800;2022-10-16T07:58:05;20.50;99.90
20139;DHT22;10230;51.502;10.800;2022-10-16T08:00:32;20.10;99.90
20139;DHT22;10230;51.502;10.800;2022-10-16T08:05:28;19.70;99.90
20139;DHT22;10230;51.502;10.800;2022-10-16T08:07:55;19.20;99.90
20139;DHT22;10230;51.502;10.800;2022-10-16T08:15:14;19.10;99.90
20139;DHT22;10230;51.502;10.800;2022-10-16T08:17:40;18.60;99.90
20139;DHT22;10230;51.502;10.800;2022-10-16T08:20:06;18.40;99.90
20139;DHT22;10230;51.502;10.800;2022-10-16T08:22:31;18.40;99.90
20139;DHT22;10230;51.502;10.800;2022-10-16T08:24:57;18.40;99.90
20139;DHT22;10230;51.502;10.800;2022-10-16T08:27:23;18.40;99.90
20139;DHT22;10230;51.502;10.800;2022-10-16T08:29:49;18.30;99.90
20139;DHT22;10230;51.502;10.800;2022-10-16T08:34:40;18.00;99.90
20139;DHT22;10230;51.502;10.800;2022-10-16T08:37:06;18.00;99.90
20139;DHT22;10230;51.502;10.800;2022-10-16T08:39:33;18.10;99.90
20139;DHT22;10230;51.502;10.800;2022-10-16T08:42:15;18.10;99.90
20139;DHT22;10230;51.502;10.800;2022-10-16T08:45:08;18.10;99.90
20139;DHT22;10230;51.502;10.800;2022-10-16T08:48:04;18.10;99.90
20139;DHT22;10230;51.502;10.800;2022-10-16T08:50:33;18.20;99.90
20139;DHT22;10230;51.502;10.800;2022-10-16T08:53:03;18.10;99.90
20139;DHT22;10230;51.502;10.800;2022-10-16T08:58:13;18.20;99.90
20139;DHT22;10230;51.502;10.800;2022-10-16T09:11:41;17.90;99.90
20139;DHT22;10230;51.502;10.800;2022-10-16T09:16:57;17.80;99.90
20139;DHT22;10230;51.502;10.800;2022-10-16T09:19:30;17.80;99.90
20139;DHT22;10230;51.502;10.800;2022-10-16T09:21:59;17.80;99.90
20139;DHT22;10230;51.502;10.800;2022-10-16T09:24:27;17.70;99.90
20139;DHT22;10230;51.502;10.800;2022-10-16T09:39:25;17.40;99.90
20139;DHT22;10230;51.502;10.800;2022-10-16T09:41:51;17.50;99.90
20139;DHT22;10230;51.502;10.800;2022-10-16T09:44:29;17.60;99.90
20139;DHT22;10230;51.502;10.800;2022-10-16T09:47:13;17.60;99.90
20139;DHT22;10230;51.502;10.800;2022-10-16T09:49:53;17.70;99.90
20139;DHT22;10230;51.502;10.800;2022-10-16T09:52:22;17.80;99.90
20139;DHT22;10230;51.502;10.800;2022-10-16T09:54:52;18.00;99.90
20139;DHT22;10230;51.502;10.800;2022-10-16T09:57:18;18.20;99.90
20139;DHT22;10230;51.502;10.800;2022-10-16T10:09:51;18.90;99.90
20139;DHT22;10230;51.502;10.800;2022-10-16T10:14:50;19.80;99.90
20139;DHT22;10230;51.502;10.800;2022-10-16T10:17:18;20.10;99.90
20139;DHT22;10230;51.502;10.800;2022-10-16T11:07:58;27.80;99.70
20139;DHT22;10230;51.502;10.800;2022-10-16T11:10:45;28.20;98.20
20139;DHT22;10230;51.502;10.800;2022-10-16T11:15:44;28.70;94.70
20139;DHT22;10230;51.502;10.800;2022-10-16T11:18:19;28.70;93.30
20139;DHT22;10230;51.502;10.800;2022-10-16T11:20:53;28.80;93.30
20139;DHT22;10230;51.502;10.800;2022-10-16T11:26:18;29.30;91.60
20139;DHT22;10230;51.502;10.800;2022-10-16T11:28:53;29.10;90.40
20139;DHT22;10230;51.502;10.800;2022-10-16T11:31:34;29.30;89.60
20139;DHT22;10230;51.502;10.800;2022-10-16T11:36:53;29.60;86.60
20139;DHT22;10230;51.502;10.800;2022-10-16T11:39:25;29.70;86.30
20139;DHT22;10230;51.502;10.800;2022-10-16T12:25:56;30.50;98.50
20139;DHT22;10230;51.502;10.800;2022-10-16T12:35:47;28.30;96.90
20139;DHT22;10230;51.502;10.800;2022-10-16T12:38:15;27.70;75.20
20139;DHT22;10230;51.502;10.800;2022-10-16T12:40:41;27.30;77.00
20139;DHT22;10230;51.502;10.800;2022-10-16T12:48:20;27.00;96.60
20139;DHT22;10230;51.502;10.800;2022-10-16T12:53:18;25.90;94.70
20139;DHT22;10230;51.502;10.800;2022-10-16T12:55:55;25.80;81.60
20139;DHT22;10230;51.502;10.800;2022-10-16T13:07:44;24.90;87.80
20139;DHT22;10230;51.502;10.800;2022-10-16T13:10:18;24.80;88.40
20139;DHT22;10230;51.502;10.800;2022-10-16T13:20:50;24.90;89.30
20139;DHT22;10230;51.502;10.800;2022-10-16T13:23:19;25.00;89.20
20139;DHT22;10230;51.502;10.800;2022-10-16T13:28:27;24.90;89.80
20139;DHT22;10230;51.502;10.800;2022-10-16T13:33:33;24.70;99.90
20139;DHT22;10230;51.502;10.800;2022-10-16T13:36:02;24.80;99.90
20139;DHT22;10230;51.502;10.800;2022-10-16T13:38:31;24.80;99.90
20139;DHT22;10230;51.502;10.800;2022-10-16T13:51:16;24.80;99.60
20139;DHT22;10230;51.502;10.800;2022-10-16T13:53:43;25.00;91.60
20139;DHT22;10230;51.502;10.800;2022-10-16T13:56:12;25.20;91.50
20139;DHT22;10230;51.502;10.800;2022-10-16T13:58:39;25.40;91.30
20139;DHT22;10230;51.502;10.800;2022-10-16T14:01:17;25.60;91.10
20139;DHT22;10230;51.502;10.800;2022-10-16T14:03:45;25.70;91.20
20139;DHT22;10230;51.502;10.800;2022-10-16T14:06:15;25.60;91.20
20139;DHT22;10230;51.502;10.800;2022-10-16T14:09:05;25.40;91.40
20139;DHT22;10230;51.502;10.800;2022-10-16T14:11:33;25.20;91.70
20139;DHT22;10230;51.502;10.800;2022-10-16T14:14:00;25.10;92.10
20139;DHT22;10230;51.502;10.800;2022-10-16T14:16:30;25.00;92.30
20139;DHT22;10230;51.502;10.800;2022-10-16T14:19:02;25.00;92.40
20139;DHT22;10230;51.502;10.800;2022-10-16T14:21:30;25.00;92.40
20139;DHT22;10230;51.502;10.800;2022-10-16T14:23:57;25.10;92.50
20139;DHT22;10230;51.502;10.800;2022-10-16T14:26:26;25.10;92.60
20139;DHT22;10230;51.502;10.800;2022-10-16T14:29:25;25.20;92.60
20139;DHT22;10230;51.502;10.800;2022-10-16T14:32:01;25.20;92.70
20139;DHT22;10230;51.502;10.800;2022-10-16T14:34:38;25.20;92.70
20139;DHT22;10230;51.502;10.800;2022-10-16T14:37:22;25.30;92.70
20139;DHT22;10230;51.502;10.800;2022-10-16T14:39:49;25.30;92.90
20139;DHT22;10230;51.502;10.800;2022-10-16T14:42:17;25.20;92.90
20139;DHT22;10230;51.502;10.800;2022-10-16T14:44:46;25.20;93.20
20139;DHT22;10230;51.502;10.800;2022-10-16T14:47:17;25.30;93.30
20139;DHT22;10230;51.502;10.800;2022-10-16T14:49:47;25.30;93.30
20139;DHT22;10230;51.502;10.800;2022-10-16T14:54:40;25.10;98.60
20139;DHT22;10230;51.502;10.800;2022-10-16T15:02:25;24.50;99.90
20139;DHT22;10230;51.502;10.800;2022-10-16T15:04:52;24.10;92.70
20139;DHT22;10230;51.502;10.800;2022-10-16T15:12:10;23.30;98.60
20139;DHT22;10230;51.502;10.800;2022-10-16T15:21:54;22.40;99.90
